• Join FlightAware (Why Join?)
  • Login
  • US Flag 
09:02AM EDT


 

Airport Tracker/Info


-or-


 

Live Flight TrackerFlight Track Log ✈ SWA470 ✈ 06-May-2013 ✈ KMDW - KDSM

Flight Track Log - Related Links

Times and Time Zones

All times are in EDT time to prevent confusion due to time zone crossing. See the SWA470 flight status page for this flight to view local times or setup timezone preferences in your user account.

Time Position Orientation Groundspeed Altitude Reporting Facility
EDT Latitude Longitude Course Direction KTS MPH feet Rate Location/Type
02:04PM 41.8000 -87.7833 236° Southwest 163 188 1,900  Level Chicago TRACON
02:05PM 41.7667 -87.8500 236° Southwest 230 265 4,500 2,220 Climbing Chicago TRACON
02:06PM 41.7678 -87.9197 271° West 247 284 5,700 2,880 Climbing Chicago Center
02:08PM 41.7646 -88.0786 265° West  Level FlightAware Approximate
02:10PM 41.7728 -88.4108 270° West 349 402 18,600  Level Chicago Center
02:11PM 41.7683 -88.5528 268° West 378 435 21,900 2,760 Climbing Chicago Center
02:12PM 41.7558 -88.6969 263° West 393 452 24,400 2,520 Climbing Chicago Center
02:14PM 41.7522 -88.8689 268° West  Level FlightAware Approximate
02:14PM 41.7469 -89.0389 268° West 426 490 29,800  Level Chicago Center
02:15PM 41.7000 -88.9761 270° West  Level FlightAware Approximate
02:15PM 41.7425 -89.1967 268° West 427 491 32,000  Level Chicago Center
02:16PM 41.7000 -89.1049 270° West  Level FlightAware Approximate
02:17PM 41.7354 -89.3556 267° West  Level FlightAware Approximate
02:18PM 41.7294 -89.7000 268° West 434 499 32,000  Level Chicago Center
02:19PM 41.7242 -89.8578 267° West 430 495 32,000  Level Chicago Center
02:20PM 41.7192 -90.0167 268° West 430 495 32,000  Level Chicago Center
02:22PM 41.7128 -90.1544 267° West  Level FlightAware Approximate
02:24PM 41.6997 -90.2440 268° West  Level FlightAware Approximate
02:24PM 41.7006 -90.5011 266° West 437 503 32,000  Level Chicago Center
02:26PM 41.6905 -90.7533 267° West  Level Estimated
02:27PM 41.6789 -91.0189 267° West 433 498 32,000  Level Chicago Center
02:28PM 41.6719 -91.1764 267° West 427 491 32,000 -780 Level Chicago Center
02:29PM 41.6679 -91.0436 266° West  Level FlightAware Approximate
02:30PM 41.6581 -91.4886 267° West 424 488 29,700  Level Chicago Center
02:31PM 41.6506 -91.6436 266° West 421 484 26,900 -2,580 Descending Chicago Center
02:32PM 41.6414 -91.8272 266° West 416 479 24,400 -1,440 Descending Chicago Center
02:33PM 41.6347 -91.9681 266° West 393 452 24,000 -540 Descending Chicago Center
02:34PM 41.6278 -92.1039 266° West 376 433 23,400 -1,500 Descending Chicago Center
02:35PM 41.6200 -92.2400 266° West 373 429 20,900 -2,340 Descending Chicago Center
02:37PM 41.6039 -92.5408 266° West 367 422 16,300 -2,220 Descending Minneapolis Center
02:38PM 41.5961 -92.6800 266° West 352 405 14,100 -1,860 Descending Minneapolis Center
02:40PM 41.5803 -92.9172 265° West 338 389 10,600 -1,500 Descending Chicago Center
02:41PM 41.5572 -93.0436 256° West 296 341 9,500 -1,200 Descending Minneapolis Center
02:41PM 41.5564 -93.0669 267° West 289 333 9,000 -1,680 Descending Minneapolis Center
02:42PM 41.5361 -93.1542 253° West 288 331 7,800 -1,500 Descending Minneapolis Center
02:42PM 41.5372 -93.1692 276° West 285 328 7,500 -1,320 Descending Minneapolis Center
02:43PM 41.5175 -93.2683 255° West 281 323 6,100 -1,500 Descending Minneapolis Center
02:44PM 41.4956 -93.3594 252° West 275 316 4,900 -1,440 Descending Minneapolis Center
02:45PM 41.4764 -93.4556 255° West 270 311 3,500 -1,380 Descending Minneapolis Center
02:46PM 41.4750 -93.4839 266° West 268 308 3,000 -1,020 Descending Minneapolis Center
02:46PM 41.4586 -93.5511 252° West 266 306 2,500 -600 Descending Minneapolis Center
02:47PM 41.4614 -93.5769 278° West 254 292 2,400 -180 Descending Minneapolis Center
02:48PM 41.4697 -93.7050 275° West 178 205 2,200 -300 Descending Minneapolis Center
02:49PM 41.5028 -93.7150 347° North 140 161 1,600 -660 Descending Minneapolis Center
02:50PM 41.5256 -93.6733 54° Northeast 138 159 900 -720 Descending Minneapolis Center
02:53PM 41.5340 -93.6631 37° Northeast  Level Estimated